Time;durP1;ratioP1;P1;durP2;ratioP2;P2;SDS_P1;SDS_P2;PMS_P1;PMS_P2;Temp;Humidity;BMP_temperature;BMP_pressure;BME280_temperature;BME280_humidity;BME280_pressure;Samples;Min_cycle;Max_cycle;Signal;HPM_P1;HPM_P2
2023/08/22 00:01:50;;;;;;;3.65;2.40;;;;;;;25.54;46.72;99698.09;4936230;29;20565;-93
2023/08/22 00:04:16;;;;;;;2.45;1.83;;;;;;;25.79;46.72;99716.94;4930718;29;20189;-93
2023/08/22 00:06:41;;;;;;;3.80;1.27;;;;;;;25.83;46.57;99723.81;4916684;29;20032;-91
2023/08/22 00:09:53;;;;;;;4.50;1.70;;;;;;;26.00;46.38;99765.78;4934920;29;20169;-93
2023/08/22 00:12:20;;;;;;;3.78;2.05;;;;;;;25.67;46.44;99751.16;4934993;29;20039;-93
2023/08/22 00:18:09;;;;;;;2.35;1.40;;;;;;;25.34;46.53;99715.81;4937292;29;20043;-95
2023/08/22 00:20:57;;;;;;;3.08;1.80;;;;;;;25.73;46.80;99778.56;4945705;28;20050;-94
2023/08/22 00:23:23;;;;;;;3.40;2.90;;;;;;;25.53;46.79;99763.91;4974451;28;20053;-92
2023/08/22 00:26:16;;;;;;;5.25;2.67;;;;;;;25.78;46.93;99777.34;4976170;28;20031;-94
2023/08/22 00:28:49;;;;;;;2.83;1.95;;;;;;;25.26;46.96;99725.47;4993165;28;20034;-92
2023/08/22 00:31:49;;;;;;;5.03;2.30;;;;;;;25.57;47.49;99777.16;4994427;28;20045;-93
2023/08/22 00:35:05;;;;;;;3.83;2.38;;;;;;;25.61;47.49;99778.63;4972448;29;20039;-96
2023/08/22 00:41:58;;;;;;;;;;;;;;;;;;;;;
2023/08/22 01:02:12;;;;;;;6.93;3.80;;;;;;;24.52;48.96;99703.94;4876758;29;20121;-94
2023/08/22 01:04:49;;;;;;;2.25;1.90;;;;;;;24.51;48.85;99702.19;4857392;29;20568;-93
2023/08/22 01:07:35;;;;;;;1.35;0.98;;;;;;;24.94;49.25;99780.00;4858131;29;20041;-92
2023/08/22 01:13:54;;;;;;;5.47;2.53;;;;;;;25.06;49.21;99775.53;4877056;29;20026;-92
2023/08/22 01:16:20;;;;;;;4.80;1.90;;;;;;;24.55;49.28;99711.78;4876402;29;20049;-94
2023/08/22 01:18:49;;;;;;;13.70;3.78;;;;;;;24.55;49.58;99701.88;4876718;29;20059;-93
2023/08/22 01:21:21;;;;;;;4.22;2.83;;;;;;;24.55;49.35;99706.41;4905326;29;20035;-92
2023/08/22 01:23:47;;;;;;;3.33;2.13;;;;;;;24.51;49.50;99721.06;4929567;29;20044;-92
2023/08/22 01:26:13;;;;;;;6.90;2.65;;;;;;;24.51;49.09;99715.69;4913310;29;20128;-91
2023/08/22 01:28:52;;;;;;;4.10;2.10;;;;;;;24.32;48.49;99698.16;4913765;29;20056;-92
2023/08/22 01:31:27;;;;;;;4.68;1.88;;;;;;;24.71;48.49;99744.78;4924486;29;20545;-92
2023/08/22 01:34:01;;;;;;;6.00;3.40;;;;;;;24.87;48.45;99793.09;4930135;29;20068;-93
2023/08/22 01:37:30;;;;;;;;;;;;;;;;;;;;;
2023/08/22 01:40:28;;;;;;;5.63;2.25;;;;;;;24.61;50.77;99778.78;4858068;29;20041;-93
2023/08/22 01:46:37;;;;;;;;;;;;;;;;;;;;;
2023/08/22 01:49:13;;;;;;;2.55;1.67;;;;;;;24.29;50.62;99744.19;4838175;29;20050;-92
2023/08/22 01:51:39;;;;;;;6.15;2.70;;;;;;;24.37;50.15;99746.31;4872535;29;20531;-89
2023/08/22 01:54:10;;;;;;;5.32;3.30;;;;;;;24.27;49.44;99724.56;4841413;29;20037;-91
2023/08/22 01:56:36;;;;;;;3.53;1.75;;;;;;;24.28;49.56;99759.50;4856723;29;20477;-91
2023/08/22 02:02:38;;;;;;;5.13;2.13;;;;;;;23.70;50.69;99693.53;4857977;29;20057;-95
2023/08/22 02:06:04;;;;;;;4.35;2.28;;;;;;;24.39;50.79;99792.91;4873814;29;20045;-94
2023/08/22 02:08:30;;;;;;;1.88;1.65;;;;;;;23.82;50.82;99726.81;4820258;29;20042;-91
2023/08/22 02:10:56;;;;;;;2.95;1.42;;;;;;;23.87;50.67;99717.47;4819793;29;20110;-90
2023/08/22 02:13:21;;;;;;;2.10;1.90;;;;;;;23.95;50.55;99741.19;4815575;29;20165;-89
2023/08/22 02:15:47;;;;;;;4.30;1.90;;;;;;;23.57;50.61;99688.13;4830809;29;20059;-91
2023/08/22 02:18:12;;;;;;;3.05;1.88;;;;;;;23.76;50.59;99726.28;4914655;29;20103;-93
2023/08/22 02:20:38;;;;;;;3.10;1.70;;;;;;;23.77;50.13;99725.31;4914530;29;20560;-89
2023/08/22 02:23:04;;;;;;;3.90;2.42;;;;;;;23.80;50.43;99747.59;4930943;29;20036;-90
2023/08/22 02:25:32;;;;;;;3.08;1.95;;;;;;;23.86;50.41;99722.97;4931283;29;20074;-90
2023/08/22 02:27:58;;;;;;;2.42;1.80;;;;;;;24.14;50.17;99778.47;4931275;29;20110;-90
2023/08/22 02:30:24;;;;;;;3.03;1.83;;;;;;;23.85;50.04;99740.09;4930976;29;20482;-90
2023/08/22 02:32:49;;;;;;;9.88;2.75;;;;;;;23.58;50.33;99749.06;4930859;29;20147;-91
2023/08/22 02:35:15;;;;;;;2.35;1.45;;;;;;;;;;4929708;29;20111;-90
2023/08/22 02:37:42;;;;;;;9.07;1.75;;;;;;;23.67;50.30;99764.59;4931704;29;20051;-92
2023/08/22 02:40:10;;;;;;;5.60;2.17;;;;;;;23.47;49.83;99741.72;4914703;29;20521;-91
2023/08/22 02:42:36;;;;;;;2.78;1.48;;;;;;;23.95;49.66;99811.22;4914463;29;20043;-90
2023/08/22 02:45:03;;;;;;;4.53;2.15;;;;;;;23.62;49.38;99726.38;4960305;28;20035;-90
2023/08/22 02:47:29;;;;;;;2.67;2.03;;;;;;;23.70;48.95;99725.84;4989994;28;20031;-91
2023/08/22 02:49:56;;;;;;;2.83;1.90;;;;;;;23.93;49.05;99754.75;4990853;28;20110;-91
2023/08/22 02:52:21;;;;;;;7.40;3.38;;;;;;;23.80;49.30;99745.75;4990125;28;20045;-90
2023/08/22 02:54:47;;;;;;;13.65;2.13;;;;;;;23.84;49.59;99738.34;4991153;28;20034;-92
2023/08/22 02:57:12;;;;;;;6.45;2.88;;;;;;;23.87;49.38;99744.41;4989538;28;20037;-91
2023/08/22 02:59:38;;;;;;;3.22;1.38;;;;;;;23.95;49.60;99765.41;4989914;28;20469;-92
2023/08/22 03:02:03;;;;;;;3.83;2.33;;;;;;;23.69;49.24;99695.34;5006021;28;20608;-92
2023/08/22 03:04:30;;;;;;;3.80;1.75;;;;;;;23.94;49.43;99752.91;4994869;28;20039;-93
2023/08/22 03:06:56;;;;;;;2.72;1.38;;;;;;;23.84;49.34;99743.75;4994488;28;20493;-96
2023/08/22 03:09:33;;;;;;;3.53;2.20;;;;;;;23.75;49.32;99751.47;4978632;28;20132;-93
2023/08/22 03:14:54;;;;;;;1.80;1.38;;;;;;;23.77;49.72;99760.31;4994940;28;20129;-94
2023/08/22 03:21:10;;;;;;;2.33;1.02;;;;;;;24.06;50.16;99807.78;4989864;28;20065;-96
2023/08/22 03:23:38;;;;;;;4.15;2.10;;;;;;;23.36;50.46;99722.75;4992558;28;20109;-94
2023/08/22 03:26:03;;;;;;;1.30;1.00;;;;;;;;;;4994764;28;20173;-90
2023/08/22 03:28:29;;;;;;;2.13;1.55;;;;;;;23.58;51.06;99786.75;4992613;28;20066;-87
2023/08/22 03:31:03;;;;;;;7.20;1.77;;;;;;;23.42;50.57;99763.56;4993513;28;20034;-87
2023/08/22 03:33:30;;;;;;;3.60;2.17;;;;;;;23.89;50.98;99811.63;5009006;28;20042;-93
2023/08/22 03:36:02;;;;;;;4.10;1.80;;;;;;;23.69;51.35;99807.56;4993833;28;20101;-89
2023/08/22 03:38:29;;;;;;;4.18;2.55;;;;;;;23.27;52.13;99774.50;4990490;28;20023;-92
2023/08/22 03:40:56;;;;;;;2.38;2.17;;;;;;;23.32;51.77;99778.59;4973080;28;20043;-93
2023/08/22 03:43:22;;;;;;;2.58;1.75;;;;;;;22.98;51.58;99721.63;4973681;28;20051;-89
2023/08/22 03:45:49;;;;;;;4.55;1.85;;;;;;;23.32;51.64;99794.75;4975690;28;20035;-95
2023/08/22 03:48:15;;;;;;;3.00;1.92;;;;;;;23.20;51.61;99757.91;4981977;28;20527;-90
2023/08/22 03:50:50;;;;;;;3.22;1.85;;;;;;;23.23;51.84;99776.53;4993126;28;20107;-96
2023/08/22 03:53:17;;;;;;;3.28;1.67;;;;;;;23.06;51.49;99716.63;5004077;28;20085;-96
2023/08/22 03:55:44;;;;;;;2.63;2.13;;;;;;;23.53;50.91;99800.53;4977882;28;20038;-96
2023/08/22 03:58:53;;;;;;;3.00;1.55;;;;;;;23.41;51.70;99775.28;4995033;28;20034;-96
2023/08/22 04:01:19;;;;;;;2.63;1.95;;;;;;;23.42;51.45;99755.50;5015314;28;20054;-90
2023/08/22 04:03:48;;;;;;;2.58;1.73;;;;;;;23.72;51.45;99792.06;4990692;28;20366;-93
2023/08/22 04:06:13;;;;;;;2.65;1.65;;;;;;;23.54;50.69;99790.63;4992096;28;20034;-93
2023/08/22 04:08:39;;;;;;;5.32;3.00;;;;;;;23.84;50.97;99846.97;5009860;28;20053;-94
2023/08/22 04:11:15;;;;;;;3.85;1.60;;;;;;;23.95;51.01;99854.31;4991384;28;20035;-96
2023/08/22 04:13:40;;;;;;;2.40;1.55;;;;;;;23.74;51.00;99817.09;5394252;22;20017;-96
2023/08/22 04:18:53;;;;;;;13.30;2.88;;;;;;;23.34;50.64;99741.72;5214039;22;20053;-95
2023/08/22 04:21:58;;;;;;;3.80;3.03;;;;;;;23.63;50.66;99784.63;5018900;28;20061;-96
2023/08/22 04:35:24;;;;;;;2.63;1.67;;;;;;;23.57;51.82;99769.75;5665690;22;20084;-95
2023/08/22 04:37:50;;;;;;;3.83;1.75;;;;;;;23.62;51.94;99782.03;5045122;28;20108;-94
2023/08/22 04:40:19;;;;;;;3.13;2.08;;;;;;;23.86;51.06;99784.91;5023054;28;20041;-96
2023/08/22 04:42:44;;;;;;;3.50;2.08;;;;;;;24.25;50.64;99818.13;5022440;28;20034;-96
2023/08/22 04:45:10;;;;;;;4.80;2.85;;;;;;;24.48;50.94;99836.25;5019919;28;20037;-95
2023/08/22 04:47:35;;;;;;;5.72;2.78;;;;;;;24.42;50.66;99836.69;5015163;28;20040;-95
2023/08/22 04:50:05;;;;;;;2.58;1.83;;;;;;;24.44;51.04;99826.66;5015373;28;20105;-96
2023/08/22 04:52:30;;;;;;;4.22;2.25;;;;;;;24.66;50.41;99835.94;5004742;28;20041;-96
2023/08/22 04:54:57;;;;;;;2.15;1.48;;;;;;;24.67;49.88;99843.94;5013523;28;20127;-93
2023/08/22 04:57:26;;;;;;;2.75;1.77;;;;;;;24.86;48.96;99839.91;5012895;28;20069;-94
2023/08/22 04:59:53;;;;;;;2.80;1.77;;;;;;;24.86;48.35;99828.25;5032902;28;20033;-94
2023/08/22 05:02:24;;;;;;;3.90;2.45;;;;;;;25.24;48.45;99868.63;5032631;28;20033;-94
2023/08/22 05:04:50;;;;;;;3.60;2.00;;;;;;;25.00;49.21;99822.72;5014437;28;20048;-93
2023/08/22 05:07:15;;;;;;;4.30;2.30;;;;;;;25.13;48.19;99815.44;5010095;28;20128;-87
2023/08/22 05:09:41;;;;;;;1.75;1.20;;;;;;;25.38;48.44;99837.97;5030666;28;20103;-91
2023/08/22 05:12:06;;;;;;;3.42;2.00;;;;;;;25.46;48.72;99835.53;5013397;28;20112;-91
2023/08/22 05:14:33;;;;;;;4.30;2.50;;;;;;;25.47;47.70;99820.19;5031941;28;20068;-91
2023/08/22 05:16:58;;;;;;;7.38;2.53;;;;;;;25.53;48.14;99823.31;5013998;28;20040;-90
2023/08/22 05:19:24;;;;;;;9.85;2.47;;;;;;;25.64;47.76;99821.59;5031868;28;20025;-92
2023/08/22 05:21:49;;;;;;;2.88;2.42;;;;;;;25.80;47.88;99842.94;5032756;28;20462;-96
2023/08/22 05:24:15;;;;;;;8.38;2.67;;;;;;;25.84;47.53;99855.22;5009367;28;20037;-88
2023/08/22 05:26:40;;;;;;;2.75;2.08;;;;;;;25.77;47.03;99825.09;5028607;28;20038;-89
2023/08/22 05:29:06;;;;;;;4.90;2.13;;;;;;;26.30;46.76;99867.91;5027435;28;20522;-90
2023/08/22 05:31:32;;;;;;;3.65;2.70;;;;;;;26.22;46.53;99843.31;5030777;28;20037;-91
2023/08/22 05:33:58;;;;;;;10.38;2.95;;;;;;;26.33;47.04;99848.75;5030892;28;20033;-90
2023/08/22 05:36:23;;;;;;;4.22;3.28;;;;;;;26.49;46.27;99851.09;5030341;28;20068;-90
2023/08/22 05:38:49;;;;;;;4.07;3.45;;;;;;;26.80;46.11;99864.91;5004073;28;20029;-90
2023/08/22 05:41:14;;;;;;;5.00;3.38;;;;;;;27.10;44.99;99867.00;5029987;28;20099;-91
2023/08/22 05:43:40;;;;;;;2.33;1.67;;;;;;;27.18;45.00;99850.13;5030285;28;20026;-90
2023/08/22 05:46:05;;;;;;;3.38;2.63;;;;;;;27.11;44.94;99846.19;5001975;28;20034;-90
2023/08/22 05:48:31;;;;;;;5.07;1.88;;;;;;;27.45;44.16;99833.47;5028796;28;20477;-89
2023/08/22 05:50:56;;;;;;;4.10;1.95;;;;;;;27.79;43.31;99854.13;5029049;28;20033;-89
2023/08/22 05:53:22;;;;;;;9.27;1.85;;;;;;;27.81;43.37;99830.50;5029903;28;20412;-89
2023/08/22 05:55:48;;;;;;;3.90;2.47;;;;;;;27.91;44.27;99836.84;5029353;28;20099;-89
2023/08/22 05:58:13;;;;;;;3.67;1.90;;;;;;;28.30;42.60;99844.41;5029137;28;20393;-88
2023/08/22 06:00:39;;;;;;;5.53;3.55;;;;;;;28.27;43.01;99837.41;5029437;28;20560;-88
2023/08/22 06:03:04;;;;;;;5.47;2.55;;;;;;;28.57;42.16;99833.00;5012917;28;20029;-93
2023/08/22 06:05:29;;;;;;;5.82;2.10;;;;;;;28.63;41.68;99858.78;5028303;28;20107;-91
2023/08/22 06:07:55;;;;;;;3.38;2.53;;;;;;;28.72;42.19;99869.66;5029588;28;20021;-92
2023/08/22 06:10:23;;;;;;;2.88;1.98;;;;;;;29.20;41.45;99842.88;5010823;28;20470;-92
2023/08/22 06:12:49;;;;;;;3.95;2.30;;;;;;;29.13;40.88;99866.09;5010614;28;20427;-91
2023/08/22 06:15:14;;;;;;;4.60;2.95;;;;;;;29.18;41.26;99832.09;5029893;28;20033;-91
2023/08/22 06:17:40;;;;;;;4.07;2.45;;;;;;;29.08;41.31;99826.63;5015210;28;20034;-91
2023/08/22 06:20:06;;;;;;;7.05;3.45;;;;;;;29.50;40.41;99844.59;5028194;28;20426;-91
2023/08/22 06:22:32;;;;;;;6.85;3.78;;;;;;;29.62;40.86;99823.59;5028970;28;20120;-90
2023/08/22 06:24:59;;;;;;;4.80;3.15;;;;;;;30.14;40.05;99851.38;5019557;28;20060;-92
2023/08/22 06:27:24;;;;;;;5.03;2.25;;;;;;;30.57;39.48;99837.38;5029358;28;20543;-91
2023/08/22 06:29:49;;;;;;;4.47;2.42;;;;;;;30.96;38.87;99829.06;5007274;28;20069;-92
2023/08/22 06:32:15;;;;;;;7.18;2.47;;;;;;;31.08;38.31;99843.34;4998199;28;20025;-91
2023/08/22 06:34:40;;;;;;;4.88;2.53;;;;;;;31.48;36.86;99836.63;5010629;28;20037;-91
2023/08/22 06:37:06;;;;;;;3.58;2.78;;;;;;;31.81;37.49;99834.25;5021472;28;20424;-92
2023/08/22 06:39:33;;;;;;;5.13;2.88;;;;;;;31.98;36.20;99865.25;5022145;28;20045;-91
2023/08/22 06:41:58;;;;;;;12.43;2.53;;;;;;;31.98;35.79;99859.78;5028128;28;20032;-92
2023/08/22 06:44:24;;;;;;;5.05;2.30;;;;;;;32.08;36.14;99822.38;5027149;28;20037;-92
2023/08/22 06:46:49;;;;;;;3.70;2.22;;;;;;;32.42;34.84;99844.28;5028500;28;20032;-91
2023/08/22 06:49:15;;;;;;;4.15;2.40;;;;;;;32.49;35.51;99834.44;4998589;28;20484;-93
2023/08/22 06:51:40;;;;;;;3.85;2.05;;;;;;;32.79;34.62;99823.19;5016961;28;20041;-92
2023/08/22 06:54:06;;;;;;;3.78;2.42;;;;;;;33.19;34.80;99838.06;5030560;28;20673;-93
2023/08/22 06:56:31;;;;;;;4.57;3.10;;;;;;;33.00;33.29;99807.22;5024269;28;20412;-89
2023/08/22 06:58:56;;;;;;;5.63;2.80;;;;;;;32.91;34.20;99824.63;5020686;28;20025;-91
2023/08/22 07:01:22;;;;;;;5.35;2.30;;;;;;;32.85;33.46;99795.22;5029011;28;20026;-91
2023/08/22 07:03:48;;;;;;;2.53;2.10;;;;;;;32.88;33.41;99813.16;5029869;28;20480;-90
2023/08/22 07:06:14;;;;;;;5.10;3.13;;;;;;;33.12;33.91;99848.78;5029489;28;20038;-91
2023/08/22 07:08:39;;;;;;;5.00;2.13;;;;;;;33.00;33.22;99781.81;5029513;28;20041;-92
2023/08/22 07:11:05;;;;;;;3.00;1.67;;;;;;;33.56;32.56;99814.91;5029153;28;20436;-95
2023/08/22 07:13:32;;;;;;;2.72;1.75;;;;;;;33.54;32.45;99820.53;5013637;28;20056;-93
2023/08/22 07:16:00;;;;;;;3.70;2.28;;;;;;;33.98;32.13;99835.78;5031270;28;20040;-91
2023/08/22 07:18:27;;;;;;;3.90;2.30;;;;;;;34.11;31.48;99837.16;5029087;28;20026;-89
2023/08/22 07:20:53;;;;;;;4.15;2.08;;;;;;;34.36;31.45;99822.44;5028169;28;20045;-90
2023/08/22 07:23:22;;;;;;;5.95;2.10;;;;;;;34.31;31.48;99815.78;5029586;28;20033;-95
2023/08/22 07:25:51;;;;;;;2.95;1.60;;;;;;;35.08;31.01;99848.94;5014526;28;20531;-95
2023/08/22 07:28:17;;;;;;;3.15;2.28;;;;;;;35.10;30.17;99826.84;5029734;28;20502;-92
2023/08/22 07:30:46;;;;;;;5.10;2.28;;;;;;;34.87;30.32;99815.81;5028235;28;20034;-93
2023/08/22 07:33:13;;;;;;;3.10;2.17;;;;;;;34.81;30.60;99819.28;5028303;28;20053;-90
2023/08/22 07:35:39;;;;;;;4.70;2.35;;;;;;;35.37;29.57;99833.72;5029675;28;20122;-90
2023/08/22 07:38:09;;;;;;;3.50;2.22;;;;;;;35.45;28.49;99767.00;5012184;28;20061;-95
2023/08/22 07:40:40;;;;;;;3.63;1.70;;;;;;;35.74;28.44;99823.03;5011370;28;20037;-93
2023/08/22 07:43:06;;;;;;;5.30;2.03;;;;;;;35.79;28.14;99794.03;5028714;28;20022;-91
2023/08/22 07:45:32;;;;;;;2.55;1.90;;;;;;;36.01;26.89;99800.50;5029874;28;20156;-94
2023/08/22 07:47:58;;;;;;;2.10;1.42;;;;;;;35.97;27.69;99806.56;5012979;28;20030;-92
2023/08/22 07:50:23;;;;;;;14.23;2.17;;;;;;;35.83;28.54;99809.06;5032592;28;20103;-91
2023/08/22 07:52:49;;;;;;;3.55;1.88;;;;;;;35.62;28.86;99792.41;5014686;28;20476;-92
2023/08/22 07:55:14;;;;;;;3.83;2.10;;;;;;;35.77;29.07;99811.72;5015424;28;20028;-93
2023/08/22 07:57:40;;;;;;;7.70;2.42;;;;;;;36.29;28.09;99788.09;5015410;28;20029;-91
2023/08/22 08:00:12;;;;;;;6.10;2.55;;;;;;;36.51;26.30;99809.09;5013919;28;20433;-92
2023/08/22 08:02:38;;;;;;;3.17;2.15;;;;;;;36.72;27.17;99800.09;5015593;28;20583;-93
2023/08/22 08:05:05;;;;;;;3.47;2.40;;;;;;;36.92;27.62;99791.28;5016104;28;20052;-94
2023/08/22 08:07:30;;;;;;;3.15;2.00;;;;;;;37.31;25.89;99820.34;5016524;28;20095;-96
2023/08/22 08:09:56;;;;;;;4.30;2.95;;;;;;;37.10;25.62;99802.72;5032131;28;20029;-93
2023/08/22 08:12:22;;;;;;;3.53;1.65;;;;;;;37.42;25.54;99780.47;5031758;28;20115;-93
2023/08/22 08:14:47;;;;;;;3.55;2.00;;;;;;;37.75;26.20;99797.31;5015589;28;20121;-94
2023/08/22 08:17:17;;;;;;;2.15;1.85;;;;;;;38.09;24.35;99814.09;5031908;28;20098;-93
2023/08/22 08:19:43;;;;;;;2.67;1.40;;;;;;;38.18;24.07;99806.59;5031991;28;20052;-94
2023/08/22 08:22:08;;;;;;;6.38;1.45;;;;;;;37.63;25.41;99810.72;5014197;28;20029;-92
2023/08/22 08:24:34;;;;;;;3.60;2.70;;;;;;;37.85;24.31;99802.50;5032247;28;20049;-92
2023/08/22 08:27:00;;;;;;;3.35;1.83;;;;;;;38.11;24.26;99778.94;5031466;28;20120;-94
2023/08/22 08:29:26;;;;;;;2.13;1.23;;;;;;;38.26;24.92;99774.22;5014697;28;20124;-93
2023/08/22 08:31:54;;;;;;;3.53;2.20;;;;;;;37.79;25.09;99768.34;5014808;28;20021;-93
2023/08/22 08:34:23;;;;;;;3.22;1.40;;;;;;;37.40;26.06;99788.03;5031365;28;20034;-96
2023/08/22 08:36:50;;;;;;;3.40;2.33;;;;;;;37.23;26.27;99776.44;5024267;28;20106;-92
2023/08/22 08:39:21;;;;;;;2.72;1.55;;;;;;;37.75;23.61;99785.47;5040816;28;20056;-95
2023/08/22 08:42:08;;;;;;;3.90;2.05;;;;;;;38.12;24.96;99781.50;5028279;28;20124;-94
2023/08/22 08:44:34;;;;;;;4.03;1.60;;;;;;;37.96;23.31;99754.31;5009618;28;20063;-91
2023/08/22 08:47:01;;;;;;;2.88;1.77;;;;;;;37.96;24.51;99790.94;5018460;28;20034;-92
2023/08/22 08:49:27;;;;;;;2.80;1.77;;;;;;;38.19;23.21;99781.59;5033191;28;20052;-93
2023/08/22 08:51:54;;;;;;;3.80;1.90;;;;;;;37.85;24.33;99774.97;5013790;28;20034;-87
2023/08/22 08:54:22;;;;;;;3.05;1.63;;;;;;;38.05;23.37;99788.00;5038184;28;20021;-95
2023/08/22 08:56:49;;;;;;;2.90;1.92;;;;;;;38.05;23.20;99796.28;5014305;28;20077;-90
2023/08/22 08:59:14;;;;;;;3.58;1.98;;;;;;;38.23;23.02;99776.53;5010943;28;20041;-96
2023/08/22 09:01:45;;;;;;;5.88;1.95;;;;;;;38.69;22.72;99787.84;5011583;28;20042;-91
2023/08/22 09:04:10;;;;;;;1.83;1.27;;;;;;;38.57;23.68;99778.41;5031149;28;20037;-90
2023/08/22 09:06:37;;;;;;;2.60;1.70;;;;;;;38.27;23.15;99773.19;5030595;28;20487;-90
2023/08/22 09:09:04;;;;;;;1.42;1.17;;;;;;;38.48;23.26;99797.03;5029710;28;20491;-91
2023/08/22 09:11:29;;;;;;;5.10;1.77;;;;;;;38.12;23.42;99745.72;5030920;28;20498;-93
2023/08/22 09:13:56;;;;;;;5.38;2.05;;;;;;;38.54;23.14;99758.72;5012504;28;20030;-92
2023/08/22 09:16:26;;;;;;;3.70;1.75;;;;;;;38.77;22.42;99772.19;5013413;28;20159;-92
2023/08/22 09:18:52;;;;;;;2.67;2.20;;;;;;;38.65;24.84;99764.53;5011377;28;20511;-84
2023/08/22 09:21:17;;;;;;;3.17;1.92;;;;;;;38.82;24.53;99756.75;5028235;28;20072;-85
2023/08/22 09:23:49;;;;;;;4.15;2.08;;;;;;;38.90;24.64;99755.72;5031244;28;20063;-86
2023/08/22 09:26:21;;;;;;;1.77;1.30;;;;;;;38.83;23.10;99738.31;5030620;28;20389;-88
2023/08/22 09:28:48;;;;;;;2.22;1.40;;;;;;;38.35;23.32;99758.41;5030630;28;20423;-87
2023/08/22 09:31:23;;;;;;;4.82;3.13;;;;;;;37.89;24.10;99759.75;5029574;28;20040;-88
2023/08/22 09:33:50;;;;;;;2.25;1.35;;;;;;;38.10;24.91;99731.31;5029716;28;20037;-88
2023/08/22 09:36:20;;;;;;;4.45;2.75;;;;;;;38.33;23.08;99749.50;5025422;28;20100;-88
2023/08/22 09:38:56;;;;;;;3.00;1.90;;;;;;;37.72;23.34;99734.41;5028912;28;20112;-88
2023/08/22 09:41:23;;;;;;;8.57;2.70;;;;;;;37.27;24.43;99740.13;5023482;28;20037;-88
2023/08/22 09:43:53;;;;;;;15.63;2.17;;;;;;;37.25;24.12;99750.47;5028837;28;20131;-87
2023/08/22 09:46:19;;;;;;;6.43;2.13;;;;;;;36.90;24.21;99706.28;5029326;28;20048;-90
2023/08/22 09:48:50;;;;;;;3.83;2.03;;;;;;;37.34;24.32;99740.19;5022718;28;20029;-89
2023/08/22 09:51:19;;;;;;;2.13;1.63;;;;;;;37.44;24.30;99728.84;5029582;28;20716;-89
2023/08/22 09:53:59;;;;;;;2.75;1.77;;;;;;;37.29;24.15;99728.91;5029932;28;20422;-92
2023/08/22 09:56:26;;;;;;;2.75;1.55;;;;;;;37.32;24.46;99742.28;5012510;28;20029;-91
2023/08/22 09:58:52;;;;;;;2.05;1.20;;;;;;;37.68;23.76;99724.84;5001577;28;20033;-89
2023/08/22 10:01:19;;;;;;;3.13;2.53;;;;;;;37.74;23.63;99739.72;5029353;28;20037;-89
2023/08/22 10:03:46;;;;;;;2.70;1.42;;;;;;;37.45;23.55;99734.16;5028939;28;20544;-91
2023/08/22 10:06:13;;;;;;;4.65;1.50;;;;;;;37.71;24.80;99729.09;5029356;28;20025;-92
2023/08/22 10:08:41;;;;;;;3.05;2.35;;;;;;;37.80;24.36;99693.00;5028709;28;20099;-91
2023/08/22 10:11:10;;;;;;;2.28;1.80;;;;;;;37.91;24.37;99704.50;5029334;28;20445;-90
2023/08/22 10:13:37;;;;;;;3.38;2.08;;;;;;;38.08;23.59;99696.75;5029878;28;20029;-92
2023/08/22 10:16:03;;;;;;;3.78;1.60;;;;;;;38.08;23.64;99722.41;5012836;28;20021;-93
2023/08/22 10:18:29;;;;;;;3.60;1.77;;;;;;;37.23;24.29;99702.22;5010981;28;20115;-94
2023/08/22 10:20:55;;;;;;;3.13;2.03;;;;;;;36.81;24.52;99673.63;5011394;28;20029;-93
2023/08/22 10:23:52;;;;;;;4.95;2.30;;;;;;;37.00;24.95;99730.72;5030859;28;20113;-88
2023/08/22 10:26:22;;;;;;;4.22;2.00;;;;;;;37.03;24.47;99716.59;5029643;28;20114;-90
2023/08/22 10:29:13;;;;;;;2.85;2.22;;;;;;;37.31;25.31;99718.59;5028863;28;20044;-87
2023/08/22 10:32:00;;;;;;;2.67;2.00;;;;;;;37.57;23.97;99714.34;5030027;28;20030;-90
2023/08/22 10:34:49;;;;;;;5.00;1.50;;;;;;;37.48;23.86;99688.91;5028185;28;20048;-90
2023/08/22 10:37:16;;;;;;;2.45;1.75;;;;;;;37.65;23.75;99699.59;5017880;28;20053;-87
2023/08/22 10:39:47;;;;;;;3.70;2.58;;;;;;;37.87;24.36;99704.06;5027020;28;20028;-87
2023/08/22 10:42:19;;;;;;;3.13;1.73;;;;;;;37.78;24.09;99713.50;5028478;28;20411;-87
2023/08/22 10:44:51;;;;;;;3.08;1.55;;;;;;;37.18;23.98;99668.94;5027957;28;20037;-90
2023/08/22 10:47:21;;;;;;;5.05;2.20;;;;;;;37.43;23.93;99678.50;5027561;28;20026;-93
2023/08/22 10:49:51;;;;;;;2.88;2.20;;;;;;;37.65;24.59;99653.72;5010632;28;20033;-90
2023/08/22 10:52:17;;;;;;;2.25;2.00;;;;;;;38.02;24.11;99689.31;5021613;28;20044;-93
2023/08/22 10:55:04;;;;;;;2.50;1.55;;;;;;;38.08;23.31;99652.72;5029319;28;20067;-93
2023/08/22 10:57:32;;;;;;;4.07;2.58;;;;;;;38.03;23.32;99646.97;5017043;28;20028;-91
2023/08/22 11:00:06;;;;;;;3.38;1.85;;;;;;;37.67;23.61;99657.09;5026697;28;20060;-89
2023/08/22 11:02:33;;;;;;;3.08;2.20;;;;;;;37.77;23.36;99662.28;5028552;28;20097;-88
2023/08/22 11:05:02;;;;;;;2.63;1.90;;;;;;;37.72;23.57;99665.63;5029081;28;20044;-90
2023/08/22 11:07:29;;;;;;;3.13;1.92;;;;;;;38.06;23.91;99650.16;5027422;28;20037;-89
2023/08/22 11:09:55;;;;;;;4.18;1.88;;;;;;;37.94;24.09;99677.44;5027906;28;20407;-90
2023/08/22 11:12:21;;;;;;;2.60;1.65;;;;;;;38.57;23.88;99679.25;5028917;28;20030;-90
2023/08/22 11:14:50;;;;;;;3.08;1.90;;;;;;;38.40;24.53;99628.31;5028274;28;20029;-91
2023/08/22 11:17:17;;;;;;;3.67;2.22;;;;;;;38.18;23.83;99649.63;5028399;28;20060;-91
2023/08/22 11:19:43;;;;;;;3.45;1.73;;;;;;;38.38;23.84;99655.25;5022923;28;20033;-89
2023/08/22 11:22:09;;;;;;;3.72;2.17;;;;;;;38.37;23.44;99645.25;5030594;28;20033;-92
2023/08/22 11:24:35;;;;;;;3.15;1.88;;;;;;;38.08;23.40;99637.06;5014838;28;20029;-89
2023/08/22 11:27:04;;;;;;;2.75;1.73;;;;;;;38.40;24.07;99640.19;5032482;28;20037;-93
2023/08/22 11:29:38;;;;;;;4.45;1.85;;;;;;;38.51;22.89;99666.28;5033142;28;20116;-93
2023/08/22 11:32:04;;;;;;;;;;;;;;;38.69;23.24;99674.03;5015740;28;20048;-92
2023/08/22 11:34:29;;;;;;;1.95;1.38;;;;;;;38.28;22.57;99642.69;5033494;28;19917;-92
2023/08/22 11:36:55;;;;;;;5.50;2.63;;;;;;;38.36;23.57;99636.16;5034844;28;20042;-95
2023/08/22 11:39:20;;;;;;;3.13;1.75;;;;;;;38.79;23.76;99646.91;5015576;28;20088;-91
2023/08/22 11:41:46;;;;;;;2.63;1.85;;;;;;;38.06;22.75;99622.63;5032850;28;20683;-89
2023/08/22 11:44:15;;;;;;;3.50;2.00;;;;;;;38.03;22.71;99631.31;5032602;28;20487;-90
2023/08/22 11:46:40;;;;;;;2.28;1.58;;;;;;;38.44;23.36;99657.16;5031352;28;20025;-90
2023/08/22 11:49:09;;;;;;;6.40;2.17;;;;;;;38.20;23.08;99623.56;5032278;28;20557;-90
2023/08/22 11:51:35;;;;;;;2.72;1.73;;;;;;;38.25;23.17;99667.03;5033153;28;20036;-90
2023/08/22 11:54:00;;;;;;;2.58;1.95;;;;;;;38.02;23.60;99615.00;5032302;28;20025;-89
2023/08/22 11:56:26;;;;;;;2.38;1.65;;;;;;;37.77;23.15;99601.72;5032596;28;20037;-90
2023/08/22 11:58:54;;;;;;;3.83;2.13;;;;;;;37.61;23.67;99613.88;5031984;28;20022;-89
2023/08/22 12:01:22;;;;;;;2.78;2.03;;;;;;;37.53;23.81;99628.63;5032087;28;20041;-88
2023/08/22 12:03:48;;;;;;;2.60;1.83;;;;;;;36.95;24.13;99576.53;5033269;28;20159;-92
2023/08/22 12:06:14;;;;;;;2.97;1.70;;;;;;;37.14;23.67;99591.50;5033475;28;20125;-91
2023/08/22 12:08:40;;;;;;;4.32;2.13;;;;;;;37.59;23.45;99625.09;5013193;28;20030;-87
2023/08/22 12:11:06;;;;;;;8.55;1.88;;;;;;;37.83;23.22;99628.44;5031638;28;20060;-88
2023/08/22 12:13:32;;;;;;;1.88;1.58;;;;;;;37.44;23.22;99563.84;5029756;28;20043;-87
2023/08/22 12:15:57;;;;;;;3.70;1.92;;;;;;;38.11;23.08;99627.53;5032125;28;20128;-88
2023/08/22 12:18:30;;;;;;;2.08;1.45;;;;;;;37.84;24.62;99583.38;5031986;28;20043;-90
2023/08/22 12:20:57;;;;;;;8.80;1.85;;;;;;;37.97;24.37;99574.31;5012186;28;20025;-90
2023/08/22 12:23:22;;;;;;;2.95;1.85;;;;;;;38.11;23.62;99627.53;5031366;28;20033;-91
2023/08/22 12:25:48;;;;;;;3.75;1.98;;;;;;;37.91;23.41;99581.50;5031787;28;20052;-90
2023/08/22 12:28:14;;;;;;;6.18;2.60;;;;;;;37.77;23.30;99566.81;5031440;28;20036;-88
2023/08/22 12:30:40;;;;;;;2.00;1.70;;;;;;;37.90;23.32;99554.19;5013247;28;20132;-89
2023/08/22 12:33:07;;;;;;;3.47;1.90;;;;;;;37.90;23.20;99551.44;5031632;28;20040;-93
2023/08/22 12:35:36;;;;;;;4.90;1.85;;;;;;;38.20;23.66;99612.56;5013807;28;20043;-93
2023/08/22 12:38:03;;;;;;;4.93;2.08;;;;;;;38.15;24.12;99582.84;5014045;28;20908;-91
2023/08/22 12:40:29;;;;;;;2.80;1.95;;;;;;;38.25;24.67;99592.66;5031315;28;20030;-86
2023/08/22 12:42:55;;;;;;;2.97;2.03;;;;;;;38.22;24.43;99604.97;5030859;28;20022;-89
2023/08/22 12:45:22;;;;;;;2.97;1.85;;;;;;;37.83;24.57;99578.06;5029317;28;20480;-92